sensor_id;sensor_type;location;lat;lon;timestamp;P1;durP1;ratioP1;P2;durP2;ratioP2
24301;SDS011;12421;49.732;20.078;2023-07-16T00:05:40;11.30;;;8.60;;
24301;SDS011;12421;49.732;20.078;2023-07-16T00:15:44;21.20;;;11.20;;
24301;SDS011;12421;49.732;20.078;2023-07-16T00:25:47;17.00;;;10.10;;
24301;SDS011;12421;49.732;20.078;2023-07-16T00:35:54;17.50;;;10.00;;
24301;SDS011;12421;49.732;20.078;2023-07-16T00:45:57;17.30;;;9.00;;
24301;SDS011;12421;49.732;20.078;2023-07-16T00:56:01;13.70;;;8.50;;
24301;SDS011;12421;49.732;20.078;2023-07-16T01:50:48;13.40;;;7.40;;
24301;SDS011;12421;49.732;20.078;2023-07-16T02:46:54;6.80;;;5.40;;
24301;SDS011;12421;49.732;20.078;2023-07-16T03:54:57;8.40;;;5.30;;
24301;SDS011;12421;49.732;20.078;2023-07-16T04:17:31;7.30;;;5.10;;
24301;SDS011;12421;49.732;20.078;2023-07-16T04:39:42;6.80;;;5.10;;
24301;SDS011;12421;49.732;20.078;2023-07-16T05:46:11;6.40;;;4.10;;
24301;SDS011;12421;49.732;20.078;2023-07-16T06:07:30;5.20;;;3.60;;
24301;SDS011;12421;49.732;20.078;2023-07-16T06:39:59;3.80;;;3.20;;
24301;SDS011;12421;49.732;20.078;2023-07-16T07:01:39;7.30;;;3.20;;
24301;SDS011;12421;49.732;20.078;2023-07-16T07:12:13;4.50;;;2.90;;
24301;SDS011;12421;49.732;20.078;2023-07-16T07:22:34;4.30;;;2.90;;
24301;SDS011;12421;49.732;20.078;2023-07-16T07:33:00;3.80;;;2.40;;
24301;SDS011;12421;49.732;20.078;2023-07-16T07:43:59;7.00;;;2.60;;
24301;SDS011;12421;49.732;20.078;2023-07-16T07:54:33;3.10;;;2.30;;
24301;SDS011;12421;49.732;20.078;2023-07-16T08:04:48;3.60;;;2.40;;
24301;SDS011;12421;49.732;20.078;2023-07-16T08:15:12;4.10;;;2.20;;
24301;SDS011;12421;49.732;20.078;2023-07-16T08:25:25;4.40;;;2.50;;
24301;SDS011;12421;49.732;20.078;2023-07-16T08:35:33;5.30;;;2.30;;
24301;SDS011;12421;49.732;20.078;2023-07-16T08:56:05;4.70;;;2.80;;
24301;SDS011;12421;49.732;20.078;2023-07-16T09:06:10;3.90;;;2.60;;
24301;SDS011;12421;49.732;20.078;2023-07-16T09:16:24;4.60;;;3.30;;
24301;SDS011;12421;49.732;20.078;2023-07-16T09:26:36;7.20;;;3.50;;
24301;SDS011;12421;49.732;20.078;2023-07-16T09:37:04;4.80;;;3.20;;
24301;SDS011;12421;49.732;20.078;2023-07-16T09:47:29;7.70;;;3.60;;
24301;SDS011;12421;49.732;20.078;2023-07-16T09:57:41;5.30;;;3.20;;
24301;SDS011;12421;49.732;20.078;2023-07-16T10:07:58;4.30;;;3.60;;
24301;SDS011;12421;49.732;20.078;2023-07-16T10:18:05;4.80;;;3.60;;
24301;SDS011;12421;49.732;20.078;2023-07-16T10:38:54;8.60;;;4.20;;
24301;SDS011;12421;49.732;20.078;2023-07-16T10:49:08;7.70;;;3.60;;
24301;SDS011;12421;49.732;20.078;2023-07-16T10:59:20;10.00;;;3.70;;
24301;SDS011;12421;49.732;20.078;2023-07-16T11:10:00;5.70;;;3.50;;
24301;SDS011;12421;49.732;20.078;2023-07-16T11:20:30;5.20;;;3.10;;
24301;SDS011;12421;49.732;20.078;2023-07-16T11:30:45;6.30;;;4.80;;
24301;SDS011;12421;49.732;20.078;2023-07-16T11:40:52;7.50;;;6.10;;
24301;SDS011;12421;49.732;20.078;2023-07-16T11:50:56;5.90;;;3.40;;
24301;SDS011;12421;49.732;20.078;2023-07-16T12:01:03;4.40;;;3.40;;
24301;SDS011;12421;49.732;20.078;2023-07-16T12:11:34;9.80;;;3.40;;
24301;SDS011;12421;49.732;20.078;2023-07-16T12:21:49;4.70;;;3.10;;
24301;SDS011;12421;49.732;20.078;2023-07-16T12:31:56;6.30;;;3.40;;
24301;SDS011;12421;49.732;20.078;2023-07-16T12:42:08;8.20;;;3.40;;
24301;SDS011;12421;49.732;20.078;2023-07-16T12:52:27;6.50;;;3.40;;
24301;SDS011;12421;49.732;20.078;2023-07-16T13:02:48;6.00;;;3.30;;
24301;SDS011;12421;49.732;20.078;2023-07-16T13:13:06;5.80;;;3.70;;
24301;SDS011;12421;49.732;20.078;2023-07-16T13:23:23;3.50;;;3.00;;
24301;SDS011;12421;49.732;20.078;2023-07-16T13:33:32;15.30;;;3.60;;
24301;SDS011;12421;49.732;20.078;2023-07-16T13:43:38;5.60;;;3.50;;
24301;SDS011;12421;49.732;20.078;2023-07-16T13:53:47;4.90;;;3.20;;
24301;SDS011;12421;49.732;20.078;2023-07-16T14:04:13;5.00;;;3.50;;
24301;SDS011;12421;49.732;20.078;2023-07-16T14:14:20;7.10;;;4.10;;
24301;SDS011;12421;49.732;20.078;2023-07-16T14:24:46;8.00;;;3.50;;
24301;SDS011;12421;49.732;20.078;2023-07-16T14:34:55;4.80;;;3.90;;
24301;SDS011;12421;49.732;20.078;2023-07-16T14:44:59;5.80;;;3.70;;
24301;SDS011;12421;49.732;20.078;2023-07-16T14:55:27;8.00;;;3.90;;
24301;SDS011;12421;49.732;20.078;2023-07-16T15:05:35;8.20;;;3.00;;
24301;SDS011;12421;49.732;20.078;2023-07-16T15:15:54;5.00;;;3.10;;
24301;SDS011;12421;49.732;20.078;2023-07-16T15:26:30;5.80;;;3.80;;
24301;SDS011;12421;49.732;20.078;2023-07-16T15:36:57;7.60;;;3.30;;
24301;SDS011;12421;49.732;20.078;2023-07-16T15:57:30;5.30;;;3.40;;
24301;SDS011;12421;49.732;20.078;2023-07-16T16:07:43;4.00;;;3.30;;
24301;SDS011;12421;49.732;20.078;2023-07-16T16:18:07;4.80;;;3.50;;
24301;SDS011;12421;49.732;20.078;2023-07-16T16:28:12;5.40;;;4.10;;
24301;SDS011;12421;49.732;20.078;2023-07-16T16:38:26;5.00;;;3.60;;
24301;SDS011;12421;49.732;20.078;2023-07-16T16:48:30;6.40;;;3.70;;
24301;SDS011;12421;49.732;20.078;2023-07-16T16:58:54;10.20;;;4.70;;
24301;SDS011;12421;49.732;20.078;2023-07-16T17:09:02;6.70;;;4.60;;
24301;SDS011;12421;49.732;20.078;2023-07-16T17:19:33;5.60;;;4.60;;
24301;SDS011;12421;49.732;20.078;2023-07-16T17:29:39;7.00;;;5.00;;
24301;SDS011;12421;49.732;20.078;2023-07-16T17:39:56;6.20;;;5.60;;
24301;SDS011;12421;49.732;20.078;2023-07-16T17:50:12;9.40;;;6.00;;
24301;SDS011;12421;49.732;20.078;2023-07-16T18:00:21;7.10;;;5.60;;
24301;SDS011;12421;49.732;20.078;2023-07-16T18:10:49;9.10;;;6.30;;
24301;SDS011;12421;49.732;20.078;2023-07-16T18:21:14;10.20;;;6.70;;
24301;SDS011;12421;49.732;20.078;2023-07-16T18:31:34;10.60;;;7.70;;
24301;SDS011;12421;49.732;20.078;2023-07-16T18:41:59;10.00;;;6.70;;
24301;SDS011;12421;49.732;20.078;2023-07-16T18:52:34;12.40;;;8.20;;
24301;SDS011;12421;49.732;20.078;2023-07-16T19:02:58;12.00;;;8.50;;
24301;SDS011;12421;49.732;20.078;2023-07-16T19:13:36;9.60;;;7.70;;
24301;SDS011;12421;49.732;20.078;2023-07-16T19:23:57;9.80;;;7.60;;
24301;SDS011;12421;49.732;20.078;2023-07-16T19:34:37;13.30;;;8.40;;
24301;SDS011;12421;49.732;20.078;2023-07-16T19:44:50;12.40;;;8.40;;
24301;SDS011;12421;49.732;20.078;2023-07-16T19:55:24;14.50;;;8.60;;
24301;SDS011;12421;49.732;20.078;2023-07-16T20:05:29;19.00;;;8.20;;
24301;SDS011;12421;49.732;20.078;2023-07-16T20:16:07;10.20;;;8.10;;
24301;SDS011;12421;49.732;20.078;2023-07-16T20:26:47;9.70;;;8.40;;
24301;SDS011;12421;49.732;20.078;2023-07-16T20:37:15;12.50;;;8.50;;
24301;SDS011;12421;49.732;20.078;2023-07-16T20:47:28;11.20;;;8.70;;
24301;SDS011;12421;49.732;20.078;2023-07-16T20:58:23;11.80;;;8.00;;
24301;SDS011;12421;49.732;20.078;2023-07-16T21:08:48;9.20;;;7.40;;
24301;SDS011;12421;49.732;20.078;2023-07-16T21:19:42;8.10;;;7.30;;
24301;SDS011;12421;49.732;20.078;2023-07-16T21:30:25;15.30;;;7.80;;
24301;SDS011;12421;49.732;20.078;2023-07-16T21:51:35;10.70;;;8.10;;
24301;SDS011;12421;49.732;20.078;2023-07-16T22:13:02;9.70;;;8.70;;
24301;SDS011;12421;49.732;20.078;2023-07-16T22:23:47;9.00;;;8.10;;
24301;SDS011;12421;49.732;20.078;2023-07-16T22:45:24;8.80;;;7.90;;
24301;SDS011;12421;49.732;20.078;2023-07-16T22:55:48;12.90;;;8.90;;
24301;SDS011;12421;49.732;20.078;2023-07-16T23:06:56;12.10;;;8.90;;
24301;SDS011;12421;49.732;20.078;2023-07-16T23:40:02;9.60;;;8.30;;
